sensor_id;sensor_type;location;lat;lon;timestamp;temperature;humidity
20315;DHT22;10315;50.958;13.080;2024-01-06T00:00:01;3.50;99.90
20315;DHT22;10315;50.958;13.080;2024-01-06T00:10:04;3.40;99.90
20315;DHT22;10315;50.958;13.080;2024-01-06T00:20:08;3.20;99.90
20315;DHT22;10315;50.958;13.080;2024-01-06T00:30:10;3.20;99.90
20315;DHT22;10315;50.958;13.080;2024-01-06T00:40:14;3.20;99.90
20315;DHT22;10315;50.958;13.080;2024-01-06T00:50:15;3.20;99.90
20315;DHT22;10315;50.958;13.080;2024-01-06T01:00:19;3.10;99.90
20315;DHT22;10315;50.958;13.080;2024-01-06T01:10:20;3.30;99.90
20315;DHT22;10315;50.958;13.080;2024-01-06T01:20:23;3.30;99.90
20315;DHT22;10315;50.958;13.080;2024-01-06T01:30:25;3.30;99.90
20315;DHT22;10315;50.958;13.080;2024-01-06T01:40:28;3.00;99.90
20315;DHT22;10315;50.958;13.080;2024-01-06T01:50:29;3.00;99.90
20315;DHT22;10315;50.958;13.080;2024-01-06T02:00:32;3.00;99.90
20315;DHT22;10315;50.958;13.080;2024-01-06T02:10:34;2.90;99.90
20315;DHT22;10315;50.958;13.080;2024-01-06T02:20:37;2.60;99.90
20315;DHT22;10315;50.958;13.080;2024-01-06T02:30:42;2.70;99.90
20315;DHT22;10315;50.958;13.080;2024-01-06T02:40:43;2.60;99.90
20315;DHT22;10315;50.958;13.080;2024-01-06T02:50:46;2.60;99.90
20315;DHT22;10315;50.958;13.080;2024-01-06T03:00:48;2.50;99.90
20315;DHT22;10315;50.958;13.080;2024-01-06T03:10:51;2.10;99.90
20315;DHT22;10315;50.958;13.080;2024-01-06T03:20:52;2.40;99.90
20315;DHT22;10315;50.958;13.080;2024-01-06T03:30:55;2.40;99.90
20315;DHT22;10315;50.958;13.080;2024-01-06T03:40:57;2.20;99.90
20315;DHT22;10315;50.958;13.080;2024-01-06T03:51:00;2.00;99.90
20315;DHT22;10315;50.958;13.080;2024-01-06T04:01:02;2.00;99.90
20315;DHT22;10315;50.958;13.080;2024-01-06T04:11:05;2.20;99.90
20315;DHT22;10315;50.958;13.080;2024-01-06T04:21:07;2.40;99.90
20315;DHT22;10315;50.958;13.080;2024-01-06T04:31:10;2.40;99.90
20315;DHT22;10315;50.958;13.080;2024-01-06T04:41:12;2.30;99.90
20315;DHT22;10315;50.958;13.080;2024-01-06T04:51:15;2.30;99.90
20315;DHT22;10315;50.958;13.080;2024-01-06T05:01:16;2.60;99.90
20315;DHT22;10315;50.958;13.080;2024-01-06T05:11:19;2.60;99.90
20315;DHT22;10315;50.958;13.080;2024-01-06T05:21:21;2.30;99.90
20315;DHT22;10315;50.958;13.080;2024-01-06T05:31:24;2.40;99.90
20315;DHT22;10315;50.958;13.080;2024-01-06T05:41:25;2.30;99.90
20315;DHT22;10315;50.958;13.080;2024-01-06T05:51:28;2.30;99.90
20315;DHT22;10315;50.958;13.080;2024-01-06T06:01:30;2.40;99.90
20315;DHT22;10315;50.958;13.080;2024-01-06T06:11:33;2.60;99.90
20315;DHT22;10315;50.958;13.080;2024-01-06T06:21:34;2.50;99.90
20315;DHT22;10315;50.958;13.080;2024-01-06T06:31:37;2.40;99.90
20315;DHT22;10315;50.958;13.080;2024-01-06T06:41:39;2.20;99.90
20315;DHT22;10315;50.958;13.080;2024-01-06T06:51:42;2.10;99.90
20315;DHT22;10315;50.958;13.080;2024-01-06T07:01:47;2.40;99.90
20315;DHT22;10315;50.958;13.080;2024-01-06T07:11:50;2.40;99.90
20315;DHT22;10315;50.958;13.080;2024-01-06T07:21:51;2.20;99.90
20315;DHT22;10315;50.958;13.080;2024-01-06T07:31:54;1.90;99.90
20315;DHT22;10315;50.958;13.080;2024-01-06T07:41:56;1.80;99.90
20315;DHT22;10315;50.958;13.080;2024-01-06T07:51:59;1.90;99.90
20315;DHT22;10315;50.958;13.080;2024-01-06T08:02:01;1.90;99.90
20315;DHT22;10315;50.958;13.080;2024-01-06T08:12:05;2.30;99.90
20315;DHT22;10315;50.958;13.080;2024-01-06T08:22:07;2.60;99.90
20315;DHT22;10315;50.958;13.080;2024-01-06T08:32:10;2.90;99.90
20315;DHT22;10315;50.958;13.080;2024-01-06T08:42:11;3.10;99.90
20315;DHT22;10315;50.958;13.080;2024-01-06T08:52:14;3.70;99.90
20315;DHT22;10315;50.958;13.080;2024-01-06T09:02:16;4.30;99.90
20315;DHT22;10315;50.958;13.080;2024-01-06T09:12:19;4.50;99.90
20315;DHT22;10315;50.958;13.080;2024-01-06T09:22:21;5.30;99.90
20315;DHT22;10315;50.958;13.080;2024-01-06T09:32:25;6.10;99.90
20315;DHT22;10315;50.958;13.080;2024-01-06T09:42:27;6.80;99.90
20315;DHT22;10315;50.958;13.080;2024-01-06T09:52:32;7.70;99.90
20315;DHT22;10315;50.958;13.080;2024-01-06T10:02:34;7.80;99.90
20315;DHT22;10315;50.958;13.080;2024-01-06T10:12:37;7.60;99.90
20315;DHT22;10315;50.958;13.080;2024-01-06T10:22:41;7.50;99.90
20315;DHT22;10315;50.958;13.080;2024-01-06T10:32:44;7.50;99.90
20315;DHT22;10315;50.958;13.080;2024-01-06T10:42:47;7.90;99.90
20315;DHT22;10315;50.958;13.080;2024-01-06T10:52:50;7.70;99.90
20315;DHT22;10315;50.958;13.080;2024-01-06T11:02:54;7.30;99.90
20315;DHT22;10315;50.958;13.080;2024-01-06T11:13:08;6.90;99.90
20315;DHT22;10315;50.958;13.080;2024-01-06T11:23:18;6.50;99.90
20315;DHT22;10315;50.958;13.080;2024-01-06T11:33:22;6.00;99.90
20315;DHT22;10315;50.958;13.080;2024-01-06T11:43:27;5.90;99.90
20315;DHT22;10315;50.958;13.080;2024-01-06T11:53:30;5.80;99.90
20315;DHT22;10315;50.958;13.080;2024-01-06T12:03:31;5.90;99.90
20315;DHT22;10315;50.958;13.080;2024-01-06T12:13:35;5.90;99.90
20315;DHT22;10315;50.958;13.080;2024-01-06T12:23:36;6.00;99.90
20315;DHT22;10315;50.958;13.080;2024-01-06T12:33:39;5.80;99.90
20315;DHT22;10315;50.958;13.080;2024-01-06T12:43:41;5.80;99.90
20315;DHT22;10315;50.958;13.080;2024-01-06T12:53:44;5.80;99.90
20315;DHT22;10315;50.958;13.080;2024-01-06T13:03:45;5.80;99.90
20315;DHT22;10315;50.958;13.080;2024-01-06T13:13:48;5.60;99.90
20315;DHT22;10315;50.958;13.080;2024-01-06T13:23:50;5.60;99.90
20315;DHT22;10315;50.958;13.080;2024-01-06T13:33:53;5.30;99.90
20315;DHT22;10315;50.958;13.080;2024-01-06T13:43:56;5.10;99.90
20315;DHT22;10315;50.958;13.080;2024-01-06T13:53:58;5.00;99.90
20315;DHT22;10315;50.958;13.080;2024-01-06T14:04:00;5.00;99.90
20315;DHT22;10315;50.958;13.080;2024-01-06T14:14:03;4.80;99.90
20315;DHT22;10315;50.958;13.080;2024-01-06T14:24:05;4.80;99.90
20315;DHT22;10315;50.958;13.080;2024-01-06T14:34:08;4.50;99.90
20315;DHT22;10315;50.958;13.080;2024-01-06T14:44:10;4.20;99.90
20315;DHT22;10315;50.958;13.080;2024-01-06T14:54:13;3.90;99.90
20315;DHT22;10315;50.958;13.080;2024-01-06T15:04:15;3.70;99.90
20315;DHT22;10315;50.958;13.080;2024-01-06T15:14:20;3.50;99.90
20315;DHT22;10315;50.958;13.080;2024-01-06T15:24:21;3.50;99.90
20315;DHT22;10315;50.958;13.080;2024-01-06T15:34:25;3.30;99.90
20315;DHT22;10315;50.958;13.080;2024-01-06T15:44:27;3.20;99.90
20315;DHT22;10315;50.958;13.080;2024-01-06T15:54:30;3.10;99.90
20315;DHT22;10315;50.958;13.080;2024-01-06T16:04:33;3.00;99.90
20315;DHT22;10315;50.958;13.080;2024-01-06T16:14:35;2.80;99.90
20315;DHT22;10315;50.958;13.080;2024-01-06T16:24:37;2.70;99.90
20315;DHT22;10315;50.958;13.080;2024-01-06T16:34:40;2.60;99.90
20315;DHT22;10315;50.958;13.080;2024-01-06T16:44:42;2.50;99.90
20315;DHT22;10315;50.958;13.080;2024-01-06T16:54:45;2.40;99.90
20315;DHT22;10315;50.958;13.080;2024-01-06T17:04:47;2.30;99.90
20315;DHT22;10315;50.958;13.080;2024-01-06T17:14:50;2.30;99.90
20315;DHT22;10315;50.958;13.080;2024-01-06T17:24:51;2.20;99.90
20315;DHT22;10315;50.958;13.080;2024-01-06T17:34:54;2.10;99.90
20315;DHT22;10315;50.958;13.080;2024-01-06T17:44:56;2.10;99.90
20315;DHT22;10315;50.958;13.080;2024-01-06T17:55:00;2.00;99.90
20315;DHT22;10315;50.958;13.080;2024-01-06T18:05:01;2.00;99.90
20315;DHT22;10315;50.958;13.080;2024-01-06T18:15:05;1.90;99.90
20315;DHT22;10315;50.958;13.080;2024-01-06T18:25:07;1.90;99.90
20315;DHT22;10315;50.958;13.080;2024-01-06T18:35:11;1.80;99.90
20315;DHT22;10315;50.958;13.080;2024-01-06T18:45:13;1.80;99.90
20315;DHT22;10315;50.958;13.080;2024-01-06T18:55:16;1.70;99.90
20315;DHT22;10315;50.958;13.080;2024-01-06T19:05:18;1.70;99.90
20315;DHT22;10315;50.958;13.080;2024-01-06T19:15:21;1.50;99.90
20315;DHT22;10315;50.958;13.080;2024-01-06T19:25:22;1.50;99.90
20315;DHT22;10315;50.958;13.080;2024-01-06T19:35:26;1.40;99.90
20315;DHT22;10315;50.958;13.080;2024-01-06T19:45:27;1.40;99.90
20315;DHT22;10315;50.958;13.080;2024-01-06T19:55:31;1.40;99.90
20315;DHT22;10315;50.958;13.080;2024-01-06T20:05:33;1.30;99.90
20315;DHT22;10315;50.958;13.080;2024-01-06T20:15:36;1.20;99.90
20315;DHT22;10315;50.958;13.080;2024-01-06T20:25:38;1.10;99.90
20315;DHT22;10315;50.958;13.080;2024-01-06T20:35:43;1.00;99.90
20315;DHT22;10315;50.958;13.080;2024-01-06T20:45:45;0.90;99.90
20315;DHT22;10315;50.958;13.080;2024-01-06T20:55:50;0.90;99.90
20315;DHT22;10315;50.958;13.080;2024-01-06T21:05:51;0.80;99.90
20315;DHT22;10315;50.958;13.080;2024-01-06T21:15:54;0.80;99.90
20315;DHT22;10315;50.958;13.080;2024-01-06T21:25:56;0.70;99.90
20315;DHT22;10315;50.958;13.080;2024-01-06T21:36:02;0.60;99.90
20315;DHT22;10315;50.958;13.080;2024-01-06T21:46:04;0.50;99.90
20315;DHT22;10315;50.958;13.080;2024-01-06T21:56:07;0.50;99.90
20315;DHT22;10315;50.958;13.080;2024-01-06T22:06:08;0.40;99.90
20315;DHT22;10315;50.958;13.080;2024-01-06T22:16:12;0.40;99.90
20315;DHT22;10315;50.958;13.080;2024-01-06T22:26:14;0.30;99.90
20315;DHT22;10315;50.958;13.080;2024-01-06T22:36:17;0.30;99.90
20315;DHT22;10315;50.958;13.080;2024-01-06T22:46:19;0.30;99.90
20315;DHT22;10315;50.958;13.080;2024-01-06T22:56:22;0.20;99.90
20315;DHT22;10315;50.958;13.080;2024-01-06T23:06:23;0.10;99.90
20315;DHT22;10315;50.958;13.080;2024-01-06T23:16:27;0.00;99.90
20315;DHT22;10315;50.958;13.080;2024-01-06T23:26:28;-0.10;99.90
20315;DHT22;10315;50.958;13.080;2024-01-06T23:36:31;-0.10;99.90
20315;DHT22;10315;50.958;13.080;2024-01-06T23:46:36;-0.20;99.90
20315;DHT22;10315;50.958;13.080;2024-01-06T23:56:39;-0.30;99.90
